Durango, Spain
Current Conditions -  °F | °C
As of 8:30 PM on Friday 28 Nov 2014 (Local Time) from LEBB Reporting Station
Scattered Clouds Scattered Clouds  
Wind Chill: 15°   Ceiling: Unl
Heat Index: 15°   Visibility: 6mi
Dew Point: 11°   Wind: 10mph
Humidity: 77%   Direction: 120°ESE
Pressure: 29.29"   Gusts: NA
Location:  43.17°N, 2.63°W
Report Text: LEBB 281930Z 12009KT 090V160 9999 FEW038 SCT065 15/11 Q0992 TEMPO 3000 RA BKN014
Loading
Personal Weather Stations






























Interactive Weather Map New forecast layout! Learn more

10-Day Weather Forecast

Advertisements
Track Severe Weather on mobile